Ratings

348 records found.
ID Full Name Model Yacht Namesort descending Spinnaker Rating Non-spin. Rating Base Rating Non-spin. Adj. Genoa Spin. Adj. Genoa Non-spin. Adj. Mainsail Adj. Spin Area Adj. Wskr Pole Adj. Mast Adj. Prop. Adj. Misc. Adj. Furling Adj. Certificate Expires Status
15973 Margo (Ney) Lindblom Frers 36 Sweet Rocket 95 117 93 21 0 0 0 -1 0 0 0 0 3 4/30/2022 Published
15691 Whitney, Bob Sonar Swizzle Stick 183 195 180 15 0 0 0 3 0 0 0 0 0 4/30/2022 Published
15856 Gregg, Jack J/122 Tarahumara 34 55 36 19 0 0 0 -2 0 0 0 0 0 4/30/2022 Published
15617 Gowell, Jay Taylor 41 Temptress 51 71 51 20 0 0 0 0 0 0 0 0 0 4/30/2022 Published
15757 Iriye, Robert & Marie J/24 Tenacious 174 193 174 19 0 0 0 0 0 0 0 0 0 4/30/2022 Published
15714 Borge, Chuck C&C 41 Tenacious 92 107 72 22 9 9 -2 7 0 0 0 0 6 4/30/2022 Published
15809 Lincoln Mossop Club Swan 42 The Cat Came Back -3 15 -3 18 0 0 0 0 0 0 0 0 0 4/30/2022 Published
16060 Øivind Lorentzen Tripp One Ton The Hawk 113 133 114 20 0 0 2 0 0 0 0 -3 0 4/30/2022 Published
15619 William Snyder J/80 ODR The Party Tree 120 137 120 17 0 0 0 0 0 0 0 0 0 4/30/2022 Published
15593 Alfred Nazareth III Cal 25 MKII Therapy 231 253 222 22 6 6 0 0 0 0 0 0 3 4/30/2022 Published
15819 Thorsen, Kenneth R. Pearson 28-1 30+ Thora 201 222 195 21 6 6 0 0 0 0 0 0 0 4/30/2022 Published
15702 Choiniere, Brian N. Hunter 310 Three Sheets 175 195 177 18 0 0 0 -2 0 0 0 0 0 4/30/2022 Published
15603 Thomas Armstrong Grieb Swan 46 MK II Tiger 83 85 60 21 1 1 0 19 0 0 0 0 3 4/30/2022 Published
15889 Horton, Bob Scampi 30 Tigger 177 199 177 22 0 0 0 0 0 0 0 0 0 4/30/2022 Published
16021 Andrea G Gray Lazor J/70 Tinsel Saling 117 130 117 15 0 -2 0 0 0 0 0 0 0 4/30/2022 Published
15923 Bjerregaard, Chris Alerion Express 38 To be determined 135 153 129 18 0 0 0 0 0 0 0 6 4/30/2022 Published
15689 Loren Brindze Hobie 33 Topaz 99 117 93 16 6 6 2 -2 0 0 0 0 0 4/30/2022 Published
15790 Todd Barbera & Heidi Herlihy Swan 56 Tramontana -7 3 -12 15 0 0 0 5 0 0 0 0 0 4/30/2022 Published
15851 William Royce Sutton J/105 ODR TRIM 93 111 93 18 0 0 0 0 0 0 0 0 0 4/30/2022 Published
15706 Stone, Daniel J/92 Triple Play 105 122 105 17 0 0 0 0 0 0 0 0 0 4/30/2022 Published
15892 Hodgson, Howard J/160 True 5 25 -9 17 9 12 0 0 0 0 0 5 0 4/30/2022 Published
15652 Joseph Lamora J/24 Twinkle Twinkle 174 193 174 19 0 0 0 0 0 0 0 0 0 4/30/2022 Published
15915 Scott Ferguson J/35 Una 89 110 75 21 8 8 0 0 0 0 0 0 6 4/30/2022 Published
15482 Brooke Mastrorio J/109 ODR Ursa 75 94 75 19 0 0 0 0 0 0 0 0 0 4/30/2022 Published
15486 Brooke Mastrorio J/109 Ursa 69 85 75 19 -6 -9 0 0 0 0 0 0 0 4/30/2022 Published
15798 Manchester, Bob J/133 Vamoose 36 53 24 19 6 6 1 2 0 0 0 0 3 4/30/2022 Published
15350 Zani, Mike Graves Constellation Vela 180 195 180 15 0 0 0 0 0 0 0 0 0 4/30/2022 Published
15414 Kneller, Bill J/109 Vento Solare 72 94 75 19 0 0 0 -3 0 0 0 0 0 4/30/2022 Published
15413 Kneller, Bill J/109 ODR Vento Solare 75 94 75 19 0 0 0 0 0 0 0 0 0 4/30/2022 Published
15865 Jeffrey A. Lanphear J/80 Vigilance 117 137 120 17 0 0 0 -3 0 0 0 0 0 4/30/2022 Published
15568 Del Bonis, James Jeanneau Sun Fast 37 Vixen 114 125 105 18 0 0 0 6 -1 0 0 0 3 4/30/2022 Published
15674 Morris, Wayne Cal 33-2 Voyager 147 171 132 21 9 12 0 0 0 0 0 0 6 4/30/2022 Published
15672 Luke Brockman Olson 30 Wall-E 112 133 105 21 7 7 0 0 0 0 0 0 0 4/30/2022 Published
15823 Fragomen, Austin T. J/105 OD Warlock 93 111 93 18 0 0 0 0 0 0 0 0 0 4/30/2022 Published
15913 PHILIPPE PERUT SUN FAST 35 WARRIOR 110 131 93 21 8 8 0 0 0 0 6 0 3 4/30/2022 Published
15831 Griffin Spinney Mini Transat 6.50 Prototypy Warrior 21 106 121 108 13 0 0 0 -2 0 0 0 0 0 4/30/2022 Published
15829 Steven Eddleston CTM Rhodes Sloop (12 Metre) Weatherly 29 41 30 11 0 0 0 -1 0 0 0 0 0 4/30/2022 Published
15875 Whaley, John Goman Express 35 Whalayed 114 135 102 21 6 6 0 0 0 0 0 0 6 4/30/2022 Published
15596 Stuart Wemple Pearson 26 Why Knot 224 246 216 22 8 8 0 0 0 0 0 0 0 4/30/2022 Published
15941 Higginbottom, Stephen J/30 ODR Wicked 138 155 138 17 0 0 0 0 0 0 0 0 0 4/30/2022 Published
15817 Tofias, Donald W-76 Wild Horses 5 22 -9 16 9 12 3 2 0 0 0 0 0 4/30/2022 Published
16048 Grimes, Paul 1 Design 35 Modified Wilde Agnes 29 50 36 14 0 0 0 -7 0 0 0 0 0 4/30/2022 Published
15644 Millard, Michael Quest 30 Wildeyes 79 97 84 17 9 12 0 2 0 0 0 -16 0 4/30/2022 Published
15562 Mc Cally, Rick Pearson 33 Windswept 207 218 189 20 6 6 0 9 0 0 0 0 3 4/30/2022 Published
15615 Jeff Butler Ted Hood 60 Windwalker 64 76 42 21 8 8 2 9 0 0 0 0 3 4/30/2022 Published
15811 Mike Mulryan Pearson 303 Y KNOT 210 236 192 23 9 12 0 0 0 0 6 0 3 4/30/2022 Published
15746 Peter Becker J/105 Young American #146 90 108 93 18 0 0 0 0 0 0 0 0 -3 4/30/2022 Published
15960 Timothy J Grimes Melges 24 Zephyros 99 112 99 13 0 0 0 0 0 0 0 0 0 4/30/2022 Published

Pages